Time;durP1;ratioP1;P1;durP2;ratioP2;P2;SDS_P1;SDS_P2;PMS_P1;PMS_P2;Temp;Humidity;BMP_temperature;BMP_pressure;BME280_temperature;BME280_humidity;BME280_pressure;Samples;Min_cycle;Max_cycle;Signal;HPM_P1;HPM_P2
2021/06/20 00:01:07;;;;;;;184.45;150.93;;;;;;;;;;4264233;33;20057;-84
2021/06/20 00:03:39;;;;;;;185.57;148.60;;;;;;;;;;4265587;33;20061;-83
2021/06/20 00:06:14;;;;;;;151.73;135.48;;;;;;;;;;4262397;33;20101;-82
2021/06/20 00:08:46;;;;;;;154.12;138.07;;;;;;;;;;4264807;33;20057;-88
2021/06/20 00:11:14;;;;;;;159.30;143.10;;;;;;;;;;4262818;33;20153;-82
2021/06/20 00:13:43;;;;;;;157.98;140.40;;;;;;;;;;4261306;33;20140;-83
2021/06/20 00:16:15;;;;;;;160.45;143.37;;;;;;;;;;4263132;33;20096;-83
2021/06/20 00:18:47;;;;;;;151.10;135.18;;;;;;;;;;4263446;33;20180;-82
2021/06/20 00:21:18;;;;;;;165.73;137.90;;;;;;;;;;4259531;33;20068;-84
2021/06/20 00:23:52;;;;;;;157.23;141.68;;;;;;;;;;4259372;33;20124;-82
2021/06/20 00:26:21;;;;;;;158.30;142.68;;;;;;;;;;4261495;33;20312;-85
2021/06/20 00:28:52;;;;;;;157.07;142.23;;;;;;;;;;4260226;33;20163;-81
2021/06/20 00:31:20;;;;;;;152.20;137.12;;;;;;;;;;4263334;33;20152;-85
2021/06/20 00:33:52;;;;;;;157.05;141.12;;;;;;;;;;4261061;33;22059;-81
2021/06/20 00:36:22;;;;;;;158.40;141.10;;;;;;;;;;4260414;33;20101;-88
2021/06/20 00:38:54;;;;;;;139.82;126.82;;;;;;;;;;4258996;33;20124;-82
2021/06/20 00:41:25;;;;;;;144.07;131.35;;;;;;;;;;4258576;33;20049;-82
2021/06/20 00:44:01;;;;;;;148.98;135.50;;;;;;;;;;4260308;33;20058;-85
2021/06/20 00:46:30;;;;;;;150.93;137.12;;;;;;;;;;4251132;33;20345;-83
2021/06/20 00:49:01;;;;;;;152.77;138.98;;;;;;;;;;4259510;33;20432;-83
2021/06/20 00:51:32;;;;;;;157.18;142.82;;;;;;;;;;4261083;33;20236;-82
2021/06/20 00:54:05;;;;;;;158.15;144.18;;;;;;;;;;4262208;33;20088;-81
2021/06/20 00:56:36;;;;;;;158.95;145.00;;;;;;;;;;4267366;33;20445;-85
2021/06/20 00:59:05;;;;;;;194.35;175.35;;;;;;;;;;4261872;33;20148;-83
2021/06/20 01:01:34;;;;;;;172.30;157.23;;;;;;;;;;4262073;33;20470;-84
2021/06/20 01:04:02;;;;;;;177.07;161.43;;;;;;;;;;4277871;33;20087;-78
2021/06/20 01:06:33;;;;;;;170.55;155.65;;;;;;;;;;4273067;33;20143;-85
2021/06/20 01:09:01;;;;;;;174.30;159.15;;;;;;;;;;4274089;33;20098;-84
2021/06/20 01:11:33;;;;;;;173.82;158.90;;;;;;;;;;4272251;33;20067;-84
2021/06/20 01:14:05;;;;;;;196.90;178.30;;;;;;;;;;4280988;33;20068;-84
2021/06/20 01:16:36;;;;;;;196.73;177.65;;;;;;;;;;4269970;33;20569;-79
2021/06/20 01:19:08;;;;;;;201.75;182.93;;;;;;;;;;4269215;33;20158;-84
2021/06/20 01:21:39;;;;;;;166.40;151.70;;;;;;;;;;4262349;33;20430;-83
2021/06/20 01:24:10;;;;;;;168.13;153.15;;;;;;;;;;4269630;33;20096;-86
2021/06/20 01:26:40;;;;;;;171.13;156.63;;;;;;;;;;4271885;33;20144;-83
2021/06/20 01:29:12;;;;;;;171.18;156.55;;;;;;;;;;4257292;33;20610;-82
2021/06/20 01:31:49;;;;;;;166.90;152.18;;;;;;;;;;4261284;33;20096;-81
2021/06/20 01:34:20;;;;;;;162.05;147.02;;;;;;;;;;4272559;33;20625;-82
2021/06/20 01:36:48;;;;;;;162.25;147.02;;;;;;;;;;4264489;33;20065;-79
2021/06/20 01:39:17;;;;;;;174.80;155.00;;;;;;;;;;4273560;33;20420;-82
2021/06/20 01:41:48;;;;;;;178.65;161.75;;;;;;;;;;4274968;33;20155;-84
2021/06/20 01:44:19;;;;;;;177.70;160.85;;;;;;;;;;4275818;33;20049;-80
2021/06/20 01:46:50;;;;;;;174.80;157.93;;;;;;;;;;4277232;33;20448;-84
2021/06/20 01:49:19;;;;;;;184.15;166.75;;;;;;;;;;4271288;33;20061;-83
2021/06/20 01:51:51;;;;;;;177.32;162.40;;;;;;;;;;4276517;33;20582;-84
2021/06/20 01:54:21;;;;;;;184.05;166.02;;;;;;;;;;4278247;33;20056;-82
2021/06/20 01:56:50;;;;;;;177.95;160.35;;;;;;;;;;4272526;33;20482;-83
2021/06/20 01:59:21;;;;;;;196.70;177.87;;;;;;;;;;4274929;33;20095;-84
2021/06/20 02:01:53;;;;;;;161.88;147.87;;;;;;;;;;4273176;33;20256;-82
2021/06/20 02:04:24;;;;;;;179.23;162.55;;;;;;;;;;4278461;33;20156;-81
2021/06/20 02:06:55;;;;;;;190.52;172.27;;;;;;;;;;4275935;33;20132;-81
2021/06/20 02:09:25;;;;;;;183.23;165.02;;;;;;;;;;4258589;33;20116;-82
2021/06/20 02:11:56;;;;;;;180.52;163.45;;;;;;;;;;4270033;33;20065;-82
2021/06/20 02:14:27;;;;;;;162.70;148.70;;;;;;;;;;4277532;33;20398;-85
2021/06/20 02:16:56;;;;;;;162.05;147.93;;;;;;;;;;4276516;33;20417;-83
2021/06/20 02:19:27;;;;;;;163.50;148.93;;;;;;;;;;4278594;33;20416;-84
2021/06/20 02:21:56;;;;;;;184.13;164.40;;;;;;;;;;4271098;33;20075;-80
2021/06/20 02:24:28;;;;;;;182.00;163.40;;;;;;;;;;4277347;33;20132;-83
2021/06/20 02:26:57;;;;;;;183.65;165.27;;;;;;;;;;4261692;33;20154;-80
2021/06/20 02:29:25;;;;;;;187.80;165.70;;;;;;;;;;4260155;33;20117;-87
2021/06/20 02:31:53;;;;;;;181.95;162.57;;;;;;;;;;4278539;33;20164;-85
2021/06/20 02:34:22;;;;;;;170.18;151.68;;;;;;;;;;4272141;33;20106;-81
2021/06/20 02:36:50;;;;;;;171.37;153.98;;;;;;;;;;4263764;33;20164;-84
2021/06/20 02:39:19;;;;;;;164.75;147.57;;;;;;;;;;4265046;33;20120;-84
2021/06/20 02:41:50;;;;;;;167.93;149.80;;;;;;;;;;4273854;33;20243;-86
2021/06/20 02:44:19;;;;;;;171.57;153.25;;;;;;;;;;4265439;33;20135;-81
2021/06/20 02:46:50;;;;;;;171.35;151.93;;;;;;;;;;4259858;33;20805;-80
2021/06/20 02:49:21;;;;;;;172.37;153.57;;;;;;;;;;4264245;33;20450;-84
2021/06/20 02:51:50;;;;;;;170.50;151.77;;;;;;;;;;4271104;33;20196;-80
2021/06/20 02:54:18;;;;;;;207.12;177.57;;;;;;;;;;4272611;33;20718;-79
2021/06/20 02:56:46;;;;;;;198.30;177.07;;;;;;;;;;4277079;33;20387;-83
2021/06/20 02:59:15;;;;;;;208.23;186.75;;;;;;;;;;4274149;33;20510;-85
2021/06/20 03:01:43;;;;;;;181.43;162.32;;;;;;;;;;4269830;33;20424;-82
2021/06/20 03:04:12;;;;;;;171.13;153.38;;;;;;;;;;4265890;33;20128;-82
2021/06/20 03:06:41;;;;;;;171.20;153.23;;;;;;;;;;4279049;33;20791;-81
2021/06/20 03:09:12;;;;;;;173.48;155.98;;;;;;;;;;4266857;33;20138;-79
2021/06/20 03:11:54;;;;;;;177.40;159.25;;;;;;;;;;4333831;27;20040;-96
2021/06/20 03:14:38;;;;;;;191.88;169.90;;;;;;;;;;4309073;33;20611;-94
2021/06/20 03:17:19;;;;;;;174.75;157.30;;;;;;;;;;4313996;33;20063;-96
2021/06/20 03:20:05;;;;;;;174.90;157.20;;;;;;;;;;4314463;33;20083;-94
2021/06/20 03:23:10;;;;;;;176.07;158.63;;;;;;;;;;4313573;33;20107;-95
2021/06/20 03:26:21;;;;;;;178.82;161.23;;;;;;;;;;4317641;33;20074;-96
2021/06/20 03:29:06;;;;;;;179.90;162.27;;;;;;;;;;4324406;33;20091;-96
2021/06/20 03:32:04;;;;;;;179.55;161.27;;;;;;;;;;4315908;33;20037;-94
2021/06/20 03:35:04;;;;;;;167.87;150.20;;;;;;;;;;4314135;33;20056;-96
2021/06/20 03:38:02;;;;;;;164.80;148.00;;;;;;;;;;4311456;33;20113;-94
2021/06/20 03:40:45;;;;;;;182.77;164.13;;;;;;;;;;4316614;33;20098;-95
2021/06/20 03:43:20;;;;;;;186.20;166.90;;;;;;;;;;4321197;33;20048;-95
2021/06/20 03:46:10;;;;;;;177.82;159.93;;;;;;;;;;4321745;33;20084;-95
2021/06/20 03:48:46;;;;;;;166.80;150.35;;;;;;;;;;4309518;33;20342;-96
2021/06/20 03:51:21;;;;;;;172.80;155.43;;;;;;;;;;4303283;33;20728;-96
2021/06/20 03:54:01;;;;;;;181.10;157.48;;;;;;;;;;4302849;33;20052;-95
2021/06/20 03:56:31;;;;;;;191.68;171.70;;;;;;;;;;4311240;33;20052;-96
2021/06/20 03:59:09;;;;;;;177.38;160.25;;;;;;;;;;4303326;33;20052;-96
2021/06/20 04:01:58;;;;;;;179.25;163.05;;;;;;;;;;4317055;33;20053;-94
2021/06/20 04:04:49;;;;;;;174.40;157.70;;;;;;;;;;4309957;33;20052;-96
2021/06/20 04:07:23;;;;;;;177.62;160.73;;;;;;;;;;4302520;33;20447;-95
2021/06/20 04:10:01;;;;;;;175.90;159.05;;;;;;;;;;4322133;33;20056;-96
2021/06/20 04:12:43;;;;;;;175.12;158.55;;;;;;;;;;4315478;33;20187;-94
2021/06/20 04:15:36;;;;;;;182.75;165.10;;;;;;;;;;4316739;33;20102;-95
2021/06/20 04:21:41;;;;;;;180.32;163.55;;;;;;;;;;4315574;33;20084;-94
2021/06/20 04:24:53;;;;;;;175.93;158.70;;;;;;;;;;4311687;33;20071;-96
2021/06/20 04:27:47;;;;;;;172.60;155.23;;;;;;;;;;4301500;33;20052;-96
2021/06/20 04:31:11;;;;;;;171.23;154.52;;;;;;;;;;4305971;33;20458;-96
2021/06/20 04:33:47;;;;;;;175.32;158.23;;;;;;;;;;4313381;33;20065;-96
2021/06/20 04:36:29;;;;;;;167.27;151.10;;;;;;;;;;4314956;33;20143;-96
2021/06/20 04:39:36;;;;;;;164.02;147.55;;;;;;;;;;4315031;33;20067;-95
2021/06/20 04:42:22;;;;;;;169.60;152.80;;;;;;;;;;4316097;33;20509;-95
2021/06/20 04:45:16;;;;;;;174.65;157.40;;;;;;;;;;4300657;33;20143;-95
2021/06/20 04:51:41;;;;;;;182.32;164.88;;;;;;;;;;4308344;33;20470;-95
2021/06/20 04:54:45;;;;;;;;;;;;;;;;;;;;;
2021/06/20 04:57:41;;;;;;;172.93;155.95;;;;;;;;;;4312540;33;20057;-96
2021/06/20 05:00:41;;;;;;;178.55;160.80;;;;;;;;;;4314401;33;20044;-95
2021/06/20 05:03:30;;;;;;;175.48;158.12;;;;;;;;;;4313944;33;20044;-96
2021/06/20 05:06:22;;;;;;;182.95;165.00;;;;;;;;;;4289960;33;20053;-96
2021/06/20 05:09:02;;;;;;;186.80;168.30;;;;;;;;;;4303413;33;20072;-95
2021/06/20 05:11:41;;;;;;;180.77;163.55;;;;;;;;;;4316046;33;20099;-95
2021/06/20 05:18:05;;;;;;;187.40;169.05;;;;;;;;;;4323005;33;20147;-95
2021/06/20 05:20:56;;;;;;;180.52;162.12;;;;;;;;;;4297981;33;20074;-94
2021/06/20 05:23:53;;;;;;;;;;;;;;;;;;;;;
2021/06/20 05:26:51;;;;;;;179.75;162.20;;;;;;;;;;4304320;33;20080;-95
2021/06/20 05:29:46;;;;;;;183.50;165.93;;;;;;;;;;4315070;33;20119;-95
2021/06/20 05:32:31;;;;;;;172.68;155.63;;;;;;;;;;4314260;33;20107;-95
2021/06/20 05:35:14;;;;;;;171.52;154.52;;;;;;;;;;4301297;33;20069;-95
2021/06/20 05:38:15;;;;;;;;;;;;;;;;;;;;;
2021/06/20 05:40:55;;;;;;;179.18;161.55;;;;;;;;;;4314576;33;20496;-94
2021/06/20 05:43:47;;;;;;;172.98;156.35;;;;;;;;;;4316900;33;20732;-96
2021/06/20 05:46:29;;;;;;;182.57;164.77;;;;;;;;;;4316910;33;20079;-96
2021/06/20 05:49:17;;;;;;;193.93;175.23;;;;;;;;;;4304529;33;20111;-95
2021/06/20 05:52:15;;;;;;;195.43;177.27;;;;;;;;;;4317559;33;20479;-96
2021/06/20 05:54:50;;;;;;;197.62;178.73;;;;;;;;;;4313477;33;20052;-95
2021/06/20 05:57:22;;;;;;;164.20;147.75;;;;;;;;;;4311278;33;20078;-95
2021/06/20 06:00:28;;;;;;;165.37;148.50;;;;;;;;;;4312299;33;20160;-96
2021/06/20 06:03:19;;;;;;;163.45;146.82;;;;;;;;;;4301777;33;20142;-94
2021/06/20 06:05:53;;;;;;;161.52;144.90;;;;;;;;;;4309689;33;20083;-96
2021/06/20 06:08:28;;;;;;;156.40;139.85;;;;;;;;;;4319775;33;20584;-95
2021/06/20 06:11:09;;;;;;;150.82;135.30;;;;;;;;;;4314773;33;20084;-96
2021/06/20 06:13:40;;;;;;;147.43;132.20;;;;;;;;;;4302715;33;20508;-96
2021/06/20 06:16:38;;;;;;;171.82;154.30;;;;;;;;;;4286013;33;20157;-94
2021/06/20 06:19:21;;;;;;;174.23;156.70;;;;;;;;;;4313645;33;20111;-95
2021/06/20 06:22:00;;;;;;;135.12;122.40;;;;;;;;;;4293777;33;20037;-96
2021/06/20 06:24:52;;;;;;;138.05;124.85;;;;;;;;;;4317636;33;20056;-96
2021/06/20 06:30:13;;;;;;;136.88;125.35;;;;;;;;;;4324736;33;20061;-96
2021/06/20 06:32:43;;;;;;;160.43;147.75;;;;;;;;;;4321720;33;20111;-96
2021/06/20 06:35:20;;;;;;;144.20;133.37;;;;;;;;;;4313610;33;20064;-96
2021/06/20 06:38:16;;;;;;;111.62;101.68;;;;;;;;;;4303994;33;20116;-96
2021/06/20 06:41:22;;;;;;;22.98;20.12;;;;;;;;;;4320143;33;20052;-96
2021/06/20 06:43:56;;;;;;;16.40;14.80;;;;;;;;;;4308611;33;20070;-96
2021/06/20 06:46:47;;;;;;;10.88;4.05;;;;;;;;;;4305996;33;20098;-95
2021/06/20 06:49:24;;;;;;;23.77;17.40;;;;;;;;;;4301668;33;20060;-95
2021/06/20 06:52:00;;;;;;;12.10;3.40;;;;;;;;;;4310775;33;20476;-96
2021/06/20 06:54:34;;;;;;;13.95;11.05;;;;;;;;;;4317206;33;20058;-95
2021/06/20 06:57:09;;;;;;;8.13;2.83;;;;;;;;;;4308307;33;20056;-96
2021/06/20 06:59:48;;;;;;;11.55;4.37;;;;;;;;;;4304222;33;20071;-95
2021/06/20 07:02:22;;;;;;;9.85;3.20;;;;;;;;;;4313516;33;20082;-95
2021/06/20 07:04:53;;;;;;;12.32;9.85;;;;;;;;;;4309093;33;20079;-96
2021/06/20 07:07:37;;;;;;;5.95;2.30;;;;;;;;;;4304987;33;20100;-96
2021/06/20 07:10:28;;;;;;;14.90;12.80;;;;;;;;;;4318217;33;20110;-96
2021/06/20 07:13:17;;;;;;;9.77;2.75;;;;;;;;;;4323429;33;20056;-96
2021/06/20 07:15:54;;;;;;;9.88;4.85;;;;;;;;;;4322816;33;20094;-95
2021/06/20 07:18:42;;;;;;;8.60;2.17;;;;;;;;;;4309584;33;20152;-96
2021/06/20 07:21:12;;;;;;;7.15;2.70;;;;;;;;;;4295161;33;20123;-96
2021/06/20 07:23:56;;;;;;;10.48;3.30;;;;;;;;;;4318763;33;20159;-96
2021/06/20 07:26:40;;;;;;;11.35;2.87;;;;;;;;;;4303744;33;20075;-96
2021/06/20 07:29:29;;;;;;;7.00;2.65;;;;;;;;;;4301372;33;20465;-96
2021/06/20 07:32:37;;;;;;;9.88;7.10;;;;;;;;;;4299039;33;20095;-94
2021/06/20 07:35:28;;;;;;;8.13;2.08;;;;;;;;;;4319182;33;20080;-96
2021/06/20 07:38:27;;;;;;;5.37;2.20;;;;;;;;;;4324172;33;20086;-96
2021/06/20 07:41:06;;;;;;;10.80;3.22;;;;;;;;;;4311612;33;20153;-96
2021/06/20 07:43:54;;;;;;;8.20;2.08;;;;;;;;;;4317256;33;20071;-96
2021/06/20 07:46:30;;;;;;;8.48;3.10;;;;;;;;;;4298397;33;20154;-96
2021/06/20 07:49:27;;;;;;;6.03;3.47;;;;;;;;;;4315206;33;20674;-96
2021/06/20 07:52:11;;;;;;;8.27;3.17;;;;;;;;;;4314586;33;20121;-96
2021/06/20 07:54:56;;;;;;;10.00;2.58;;;;;;;;;;4298825;33;20061;-95
2021/06/20 07:58:01;;;;;;;8.70;2.70;;;;;;;;;;4294360;33;20033;-95
2021/06/20 08:00:33;;;;;;;15.25;3.05;;;;;;;;;;4303127;33;20115;-94
2021/06/20 08:03:04;;;;;;;8.13;2.47;;;;;;;;;;4327092;33;20098;-96
2021/06/20 08:05:38;;;;;;;8.98;2.42;;;;;;;;;;4322227;33;20532;-96
2021/06/20 08:08:16;;;;;;;16.27;3.05;;;;;;;;;;4322602;33;20056;-95
2021/06/20 08:10:56;;;;;;;7.12;2.20;;;;;;;;;;4325228;33;20068;-96
2021/06/20 08:17:36;;;;;;;6.55;3.03;;;;;;;;;;4324831;33;20064;-96
2021/06/20 08:20:44;;;;;;;9.45;2.60;;;;;;;;;;4303594;33;20530;-96
2021/06/20 08:23:22;;;;;;;8.98;2.70;;;;;;;;;;4307665;33;20087;-96
2021/06/20 08:26:03;;;;;;;6.65;2.70;;;;;;;;;;4331363;33;20091;-96
2021/06/20 08:28:53;;;;;;;11.00;2.55;;;;;;;;;;4310527;33;20086;-96
2021/06/20 08:31:49;;;;;;;8.13;2.50;;;;;;;;;;4331091;33;20049;-96
2021/06/20 08:35:17;;;;;;;8.35;2.65;;;;;;;;;;4336287;33;20048;-96
2021/06/20 08:39:05;;;;;;;8.07;2.37;;;;;;;;;;4304228;33;20103;-95
2021/06/20 08:41:51;;;;;;;8.02;2.97;;;;;;;;;;4305031;33;20366;-96
2021/06/20 08:44:30;;;;;;;12.80;2.50;;;;;;;;;;4318722;33;20061;-96
2021/06/20 08:47:07;;;;;;;5.62;1.98;;;;;;;;;;4310987;33;20064;-95
2021/06/20 08:49:43;;;;;;;6.75;2.25;;;;;;;;;;4320446;33;20056;-96
2021/06/20 08:52:17;;;;;;;5.70;2.00;;;;;;;;;;4315840;33;20130;-94
2021/06/20 08:55:16;;;;;;;8.32;2.58;;;;;;;;;;4300564;33;20052;-95
2021/06/20 08:58:09;;;;;;;7.57;2.30;;;;;;;;;;4323875;33;20426;-95
2021/06/20 09:01:07;;;;;;;29.48;3.83;;;;;;;;;;4300148;33;20056;-96
2021/06/20 09:03:49;;;;;;;7.03;1.98;;;;;;;;;;4300892;33;20083;-95
2021/06/20 09:06:25;;;;;;;4.75;1.80;;;;;;;;;;4320033;33;20087;-94
2021/06/20 09:09:07;;;;;;;7.85;2.40;;;;;;;;;;4311281;33;20048;-94
2021/06/20 09:11:42;;;;;;;7.82;2.83;;;;;;;;;;4322745;33;20040;-93
2021/06/20 09:14:28;;;;;;;9.75;2.60;;;;;;;;;;4303476;33;20211;-96
2021/06/20 09:17:00;;;;;;;11.70;2.58;;;;;;;;;;4317727;33;20758;-95
2021/06/20 09:20:08;;;;;;;5.97;2.00;;;;;;;;;;4307895;33;20139;-96
2021/06/20 09:23:03;;;;;;;6.00;2.00;;;;;;;;;;4319246;33;20861;-96
2021/06/20 09:26:09;;;;;;;7.45;2.42;;;;;;;;;;4322984;33;20110;-95
2021/06/20 09:29:09;;;;;;;7.53;2.40;;;;;;;;;;4310457;33;20151;-95
2021/06/20 09:31:50;;;;;;;9.23;2.40;;;;;;;;;;4307779;33;20060;-95
2021/06/20 09:34:56;;;;;;;8.30;2.42;;;;;;;;;;4323308;33;20052;-95
2021/06/20 09:38:03;;;;;;;6.45;2.35;;;;;;;;;;4316920;33;20090;-95
2021/06/20 09:40:47;;;;;;;15.98;2.65;;;;;;;;;;4301701;33;20612;-95
2021/06/20 09:43:21;;;;;;;12.40;2.72;;;;;;;;;;4306454;33;20130;-96
2021/06/20 09:46:14;;;;;;;13.05;2.78;;;;;;;;;;4322177;33;20058;-95
2021/06/20 09:48:57;;;;;;;4.87;1.95;;;;;;;;;;4319109;33;20121;-96
2021/06/20 09:51:49;;;;;;;5.68;2.20;;;;;;;;;;4314246;33;20060;-96
2021/06/20 09:54:54;;;;;;;4.97;2.03;;;;;;;;;;4322907;33;20067;-95
2021/06/20 09:57:39;;;;;;;4.70;1.83;;;;;;;;;;4315569;33;20090;-96
2021/06/20 10:00:22;;;;;;;7.85;2.10;;;;;;;;;;4316759;33;20118;-95
2021/06/20 10:06:54;;;;;;;8.32;2.33;;;;;;;;;;4318236;33;20053;-96
2021/06/20 10:09:59;;;;;;;6.78;2.00;;;;;;;;;;4306041;33;20071;-95
2021/06/20 10:12:36;;;;;;;7.15;2.20;;;;;;;;;;4325093;33;20088;-95
2021/06/20 10:15:34;;;;;;;5.40;2.35;;;;;;;;;;4305182;33;20082;-96
2021/06/20 10:18:18;;;;;;;9.48;2.30;;;;;;;;;;4277792;33;20120;-95
2021/06/20 10:21:10;;;;;;;9.80;2.42;;;;;;;;;;4277457;33;20087;-95
2021/06/20 10:23:45;;;;;;;6.15;1.85;;;;;;;;;;4270284;33;20104;-96
2021/06/20 10:26:27;;;;;;;9.15;2.47;;;;;;;;;;4284454;33;20112;-96
2021/06/20 10:29:15;;;;;;;8.20;1.87;;;;;;;;;;4293068;33;20475;-96
2021/06/20 10:31:54;;;;;;;5.70;1.90;;;;;;;;;;4310112;33;20132;-96
2021/06/20 10:34:31;;;;;;;7.80;1.92;;;;;;;;;;4306674;33;20049;-95
2021/06/20 10:37:34;;;;;;;3.72;1.65;;;;;;;;;;4305390;33;20099;-96
2021/06/20 10:40:05;;;;;;;5.43;2.00;;;;;;;;;;4305206;33;20080;-96
2021/06/20 10:42:39;;;;;;;5.07;1.80;;;;;;;;;;4304309;33;20155;-95
2021/06/20 10:45:11;;;;;;;7.45;1.87;;;;;;;;;;4315411;33;20056;-96
2021/06/20 10:47:46;;;;;;;5.05;1.90;;;;;;;;;;4308328;33;20469;-95
2021/06/20 10:50:18;;;;;;;16.37;3.28;;;;;;;;;;4305083;33;20048;-94
2021/06/20 10:52:58;;;;;;;4.50;1.80;;;;;;;;;;4316959;33;20056;-96
2021/06/20 10:55:42;;;;;;;9.63;2.47;;;;;;;;;;4313269;33;20060;-95
2021/06/20 10:58:34;;;;;;;5.10;2.08;;;;;;;;;;4310081;33;20104;-95
2021/06/20 11:01:06;;;;;;;4.40;1.60;;;;;;;;;;4313218;33;20066;-95
2021/06/20 11:03:41;;;;;;;8.07;2.17;;;;;;;;;;4332561;33;20068;-95
2021/06/20 11:06:16;;;;;;;7.90;2.30;;;;;;;;;;4320707;33;20064;-96
2021/06/20 11:08:56;;;;;;;5.57;2.00;;;;;;;;;;4301750;33;20061;-94
2021/06/20 11:11:35;;;;;;;6.60;2.15;;;;;;;;;;4305091;33;20067;-96
2021/06/20 11:14:22;;;;;;;13.18;2.25;;;;;;;;;;4312627;33;20150;-94
2021/06/20 11:17:07;;;;;;;6.05;1.67;;;;;;;;;;4308294;33;20071;-96
2021/06/20 11:19:36;;;;;;;6.87;1.58;;;;;;;;;;4311709;33;20143;-95
2021/06/20 11:22:12;;;;;;;5.70;2.28;;;;;;;;;;4312349;33;20074;-95
2021/06/20 11:24:53;;;;;;;5.72;2.17;;;;;;;;;;4300089;33;20060;-95
2021/06/20 11:27:24;;;;;;;;;;;;;;;;;;4320873;33;20056;-94
2021/06/20 11:29:57;;;;;;;5.35;1.83;;;;;;;;;;4302244;33;19956;-94
2021/06/20 11:32:33;;;;;;;5.60;1.77;;;;;;;;;;4322982;33;20624;-96
2021/06/20 11:35:15;;;;;;;5.80;1.73;;;;;;;;;;4305400;33;20409;-96
2021/06/20 11:37:49;;;;;;;7.95;1.77;;;;;;;;;;4311381;33;20056;-94
2021/06/20 11:40:24;;;;;;;7.25;1.83;;;;;;;;;;4312084;33;20094;-96
2021/06/20 11:43:00;;;;;;;6.28;1.73;;;;;;;;;;4310805;33;20484;-96
2021/06/20 11:45:33;;;;;;;5.32;1.62;;;;;;;;;;4313346;33;20065;-94
2021/06/20 11:48:08;;;;;;;6.72;1.60;;;;;;;;;;4307815;33;20044;-95
2021/06/20 11:50:42;;;;;;;5.97;2.00;;;;;;;;;;4315783;33;20055;-95
2021/06/20 11:53:17;;;;;;;4.40;1.70;;;;;;;;;;4313749;33;20056;-94
2021/06/20 11:55:53;;;;;;;6.12;2.05;;;;;;;;;;4314989;33;20512;-95
2021/06/20 11:58:27;;;;;;;11.02;2.08;;;;;;;;;;4316583;33;20059;-94
2021/06/20 12:01:04;;;;;;;6.55;1.83;;;;;;;;;;4310287;33;20091;-96
2021/06/20 12:03:48;;;;;;;5.53;1.70;;;;;;;;;;4304538;33;20115;-94
2021/06/20 12:07:17;;;;;;;3.33;1.35;;;;;;;;;;4278936;33;20076;-94
2021/06/20 12:10:01;;;;;;;3.37;1.80;;;;;;;;;;4258840;33;20583;-93
2021/06/20 12:12:33;;;;;;;6.72;2.00;;;;;;;;;;4262222;33;20081;-93
2021/06/20 12:15:15;;;;;;;6.43;1.95;;;;;;;;;;4279083;33;20051;-94
2021/06/20 12:21:10;;;;;;;;;;;;;;;;;;4331307;33;20063;-96
2021/06/20 12:24:16;;;;;;;8.10;2.12;;;;;;;;;;4296877;33;19960;-94
2021/06/20 12:31:23;;;;;;;7.68;2.00;;;;;;;;;;4241233;33;20058;-96
2021/06/20 12:35:02;;;;;;;6.62;2.17;;;;;;;;;;4291584;33;20162;-96
2021/06/20 12:41:27;;;;;;;57.05;5.53;;;;;;;;;;4307782;33;20063;-96
2021/06/20 12:44:17;;;;;;;10.50;2.28;;;;;;;;;;4317425;33;20053;-95
2021/06/20 12:50:08;;;;;;;29.55;3.30;;;;;;;;;;4289969;33;20186;-82
2021/06/20 12:52:36;;;;;;;9.15;2.17;;;;;;;;;;4291042;33;20359;-83
2021/06/20 12:55:15;;;;;;;22.50;3.22;;;;;;;;;;4291049;33;20511;-80
2021/06/20 12:57:52;;;;;;;5.25;2.30;;;;;;;;;;4291388;33;20081;-83
2021/06/20 13:00:25;;;;;;;10.05;2.47;;;;;;;;;;4299247;33;20100;-79
2021/06/20 13:02:57;;;;;;;8.15;2.17;;;;;;;;;;4292926;33;20104;-83
2021/06/20 13:05:32;;;;;;;7.80;2.35;;;;;;;;;;4292576;33;20095;-83
2021/06/20 13:08:04;;;;;;;5.85;2.40;;;;;;;;;;4290215;33;20072;-83
2021/06/20 13:10:33;;;;;;;14.50;2.85;;;;;;;;;;4291420;33;20630;-81
2021/06/20 13:13:01;;;;;;;4.90;2.33;;;;;;;;;;4290544;33;20535;-82
2021/06/20 13:15:30;;;;;;;9.15;2.03;;;;;;;;;;4290227;33;20184;-80
2021/06/20 13:17:59;;;;;;;6.18;1.85;;;;;;;;;;4292552;33;20511;-85
2021/06/20 13:20:28;;;;;;;7.07;2.25;;;;;;;;;;4291197;33;20571;-84
2021/06/20 13:22:58;;;;;;;10.43;2.58;;;;;;;;;;4290826;33;20107;-82
2021/06/20 13:25:29;;;;;;;11.77;2.22;;;;;;;;;;4287804;33;20123;-82
2021/06/20 13:28:05;;;;;;;7.12;2.22;;;;;;;;;;4290763;33;20550;-82
2021/06/20 13:30:33;;;;;;;6.72;2.03;;;;;;;;;;4289106;33;20116;-85
2021/06/20 13:33:02;;;;;;;8.52;2.03;;;;;;;;;;4289722;33;20049;-83
2021/06/20 13:35:34;;;;;;;6.45;2.00;;;;;;;;;;4287724;33;20056;-80
2021/06/20 13:38:05;;;;;;;10.35;2.30;;;;;;;;;;4289895;33;20474;-82
2021/06/20 13:40:34;;;;;;;7.68;2.12;;;;;;;;;;4289735;33;20092;-84
2021/06/20 13:43:02;;;;;;;5.37;1.90;;;;;;;;;;4290830;33;20100;-81
2021/06/20 13:45:31;;;;;;;6.57;2.00;;;;;;;;;;4289502;33;20161;-82
2021/06/20 13:48:02;;;;;;;10.18;2.22;;;;;;;;;;4288857;33;20069;-86
2021/06/20 13:50:31;;;;;;;6.03;1.87;;;;;;;;;;4274227;33;20773;-81
2021/06/20 13:53:01;;;;;;;8.07;2.33;;;;;;;;;;4275382;33;20111;-81
2021/06/20 13:55:31;;;;;;;8.05;2.35;;;;;;;;;;4276522;33;20120;-80
2021/06/20 13:58:02;;;;;;;5.07;1.92;;;;;;;;;;4277380;33;20108;-84
2021/06/20 14:00:33;;;;;;;17.75;2.65;;;;;;;;;;4275749;33;20106;-80
2021/06/20 14:03:05;;;;;;;5.00;1.98;;;;;;;;;;4278551;33;20428;-84
2021/06/20 14:05:33;;;;;;;10.52;2.40;;;;;;;;;;4273822;33;20065;-82
2021/06/20 14:08:02;;;;;;;7.72;2.50;;;;;;;;;;4275658;33;20053;-79
2021/06/20 14:10:33;;;;;;;5.25;2.12;;;;;;;;;;4275418;33;20126;-80
2021/06/20 14:13:04;;;;;;;6.80;2.60;;;;;;;;;;4276532;33;20120;-80
2021/06/20 14:15:35;;;;;;;10.10;2.80;;;;;;;;;;4276364;33;20065;-81
2021/06/20 14:18:08;;;;;;;10.48;2.70;;;;;;;;;;4275545;33;20553;-82
2021/06/20 14:20:40;;;;;;;11.45;3.15;;;;;;;;;;4272905;33;20533;-86
2021/06/20 14:23:11;;;;;;;21.77;3.80;;;;;;;;;;4277745;33;20626;-81
2021/06/20 14:25:39;;;;;;;11.80;3.35;;;;;;;;;;4274397;33;20104;-81
2021/06/20 14:28:07;;;;;;;15.30;2.95;;;;;;;;;;4274845;33;20580;-82
2021/06/20 14:30:39;;;;;;;10.10;3.05;;;;;;;;;;4274211;33;20137;-82
2021/06/20 14:33:07;;;;;;;8.75;2.83;;;;;;;;;;4274316;33;20124;-84
2021/06/20 14:35:36;;;;;;;7.05;2.72;;;;;;;;;;4275999;33;20113;-80
2021/06/20 14:38:04;;;;;;;6.70;2.47;;;;;;;;;;4277161;33;20347;-83
2021/06/20 14:40:35;;;;;;;9.23;3.20;;;;;;;;;;4272661;33;20396;-83
2021/06/20 14:43:07;;;;;;;9.73;3.17;;;;;;;;;;4275421;33;20100;-86
2021/06/20 14:45:35;;;;;;;10.32;2.72;;;;;;;;;;4272482;33;20057;-84
2021/06/20 14:48:08;;;;;;;13.65;3.03;;;;;;;;;;4279493;33;20083;-85
2021/06/20 14:50:39;;;;;;;6.05;2.53;;;;;;;;;;4292422;33;20178;-82
2021/06/20 14:53:10;;;;;;;11.73;3.20;;;;;;;;;;4293568;33;20138;-82
2021/06/20 14:55:38;;;;;;;8.63;2.83;;;;;;;;;;4292590;33;20116;-83
2021/06/20 14:58:07;;;;;;;6.97;2.33;;;;;;;;;;4293503;33;20065;-86
2021/06/20 15:00:37;;;;;;;7.95;2.60;;;;;;;;;;4293427;33;20049;-83
2021/06/20 15:03:05;;;;;;;7.00;2.60;;;;;;;;;;4293570;33;20045;-83
2021/06/20 15:05:34;;;;;;;5.95;2.40;;;;;;;;;;4292979;33;20084;-86
2021/06/20 15:08:03;;;;;;;4.65;2.20;;;;;;;;;;4293953;33;20053;-87
2021/06/20 15:10:31;;;;;;;6.47;2.65;;;;;;;;;;4293128;33;20080;-81
2021/06/20 15:13:01;;;;;;;5.75;2.28;;;;;;;;;;4291968;33;20202;-83
2021/06/20 15:15:33;;;;;;;27.77;4.22;;;;;;;;;;4293252;33;20126;-83
2021/06/20 15:18:02;;;;;;;4.85;2.20;;;;;;;;;;4293571;33;20444;-84
2021/06/20 15:20:31;;;;;;;5.37;2.55;;;;;;;;;;4292596;33;20126;-82
2021/06/20 15:23:02;;;;;;;5.47;2.25;;;;;;;;;;4293032;33;20083;-82
2021/06/20 15:25:33;;;;;;;5.68;2.45;;;;;;;;;;4295874;33;20163;-84
2021/06/20 15:28:04;;;;;;;6.78;2.35;;;;;;;;;;4294211;33;20122;-82
2021/06/20 15:30:34;;;;;;;7.32;2.55;;;;;;;;;;4290999;33;20151;-83
2021/06/20 15:33:02;;;;;;;7.28;1.98;;;;;;;;;;4290735;33;20078;-82
2021/06/20 15:35:33;;;;;;;6.35;2.45;;;;;;;;;;4293155;33;20477;-84
2021/06/20 15:38:06;;;;;;;5.97;2.20;;;;;;;;;;4292600;33;20100;-81
2021/06/20 15:40:42;;;;;;;17.02;2.80;;;;;;;;;;4291635;33;21108;-80
2021/06/20 15:43:13;;;;;;;6.47;2.05;;;;;;;;;;4294928;33;20158;-86
2021/06/20 15:45:44;;;;;;;5.57;1.90;;;;;;;;;;4274477;33;20554;-84
2021/06/20 15:48:13;;;;;;;6.07;2.10;;;;;;;;;;4293064;33;20060;-77
2021/06/20 15:50:42;;;;;;;6.57;2.00;;;;;;;;;;4293522;33;20124;-80
2021/06/20 15:53:13;;;;;;;4.65;2.00;;;;;;;;;;4293252;33;20565;-81
2021/06/20 15:55:44;;;;;;;8.27;2.22;;;;;;;;;;4292638;33;20116;-86
2021/06/20 15:58:15;;;;;;;6.18;2.47;;;;;;;;;;4293864;33;20546;-82
2021/06/20 16:00:47;;;;;;;7.68;2.70;;;;;;;;;;4292628;33;20530;-80
2021/06/20 16:03:19;;;;;;;4.95;2.45;;;;;;;;;;4294464;33;20100;-82
2021/06/20 16:05:50;;;;;;;7.18;2.40;;;;;;;;;;4292046;33;20056;-81
2021/06/20 16:08:22;;;;;;;15.23;3.50;;;;;;;;;;4293899;33;20335;-82